EZS54MQ LFSB-LFKJ
Flight info
| Callsign | EZS54MQ |
|---|---|
| Flight time | 1h 7m |
| Altitude | 30000 |
| Route | OLBEN Z50 GERSA N850 ODINA DCT UNITA DCT OLETI M858 TORTU |
| Aircraft | A320/M-SDE2E3FGHIJ1RWXYZ/LB1 |
Departure
| Time | 2026-04-08 14:06 |
|---|---|
| Airport | EuroAirport Basel–Mulhouse–Freiburg (LFSB) |
Arrival
| Time | 2026-04-08 15:13 |
|---|---|
| Airport | Ajaccio Napoléon Bonaparte airport (LFKJ) |
| Time | Latitude | Longitude | Altitude | Speed | Heading |
|---|---|---|---|---|---|
| 2026-04-08 13:15 | 47.59827 | 7.53153 | 890 ft | 0 kts | 65° |
| 2026-04-08 13:46 | 47.59821 | 7.53136 | 890 ft | 4 kts | 60° |
| 2026-04-08 13:47 | 47.59806 | 7.53104 | 890 ft | 4 kts | 44° |
| 2026-04-08 13:47 | 47.59785 | 7.53081 | 890 ft | 4 kts | 16° |
| 2026-04-08 13:47 | 47.59761 | 7.53081 | 890 ft | 3 kts | 321° |
| 2026-04-08 13:47 | 47.59742 | 7.53103 | 890 ft | 4 kts | 327° |
| 2026-04-08 13:48 | 47.59723 | 7.53120 | 890 ft | 2 kts | 328° |
| 2026-04-08 13:48 | 47.59701 | 7.53134 | 890 ft | 4 kts | 11° |
| 2026-04-08 13:48 | 47.59680 | 7.53115 | 890 ft | 4 kts | 58° |
| 2026-04-08 13:48 | 47.59669 | 7.53079 | 890 ft | 4 kts | 71° |
| 2026-04-08 13:49 | 47.59660 | 7.53041 | 890 ft | 4 kts | 68° |
| 2026-04-08 13:49 | 47.59649 | 7.53005 | 890 ft | 4 kts | 66° |
| 2026-04-08 13:49 | 47.59638 | 7.52968 | 890 ft | 4 kts | 67° |
| 2026-04-08 13:49 | 47.59628 | 7.52932 | 890 ft | 4 kts | 65° |
| 2026-04-08 13:50 | 47.59615 | 7.52897 | 890 ft | 4 kts | 44° |
| 2026-04-08 13:50 | 47.59600 | 7.52885 | 890 ft | 2 kts | 335° |
| 2026-04-08 13:50 | 47.59578 | 7.52901 | 890 ft | 4 kts | 333° |
| 2026-04-08 13:50 | 47.59556 | 7.52917 | 890 ft | 1 kts | 335° |
| 2026-04-08 13:51 | 47.59555 | 7.52918 | 890 ft | 0 kts | 335° |
| 2026-04-08 13:52 | 47.59559 | 7.52915 | 890 ft | 2 kts | 334° |
| 2026-04-08 13:53 | 47.59564 | 7.52911 | 890 ft | 0 kts | 331° |
| 2026-04-08 13:55 | 47.59567 | 7.52908 | 890 ft | 1 kts | 331° |
| 2026-04-08 13:55 | 47.59579 | 7.52895 | 890 ft | 4 kts | 319° |
| 2026-04-08 13:55 | 47.59591 | 7.52840 | 890 ft | 8 kts | 272° |
| 2026-04-08 13:56 | 47.59639 | 7.52763 | 890 ft | 12 kts | 334° |
| 2026-04-08 13:56 | 47.59718 | 7.52709 | 890 ft | 13 kts | 335° |
| 2026-04-08 13:56 | 47.59803 | 7.52650 | 890 ft | 14 kts | 334° |
| 2026-04-08 13:56 | 47.59892 | 7.52588 | 890 ft | 14 kts | 335° |
| 2026-04-08 13:57 | 47.59981 | 7.52526 | 890 ft | 14 kts | 335° |
| 2026-04-08 13:57 | 47.60070 | 7.52465 | 890 ft | 14 kts | 335° |
| 2026-04-08 13:57 | 47.60162 | 7.52402 | 890 ft | 15 kts | 334° |
| 2026-04-08 13:57 | 47.60262 | 7.52332 | 889 ft | 17 kts | 335° |
| 2026-04-08 13:58 | 47.60383 | 7.52247 | 884 ft | 21 kts | 334° |
| 2026-04-08 13:58 | 47.60513 | 7.52157 | 882 ft | 15 kts | 333° |
| 2026-04-08 13:58 | 47.60609 | 7.52087 | 882 ft | 16 kts | 334° |
| 2026-04-08 13:58 | 47.60716 | 7.52015 | 881 ft | 18 kts | 335° |
| 2026-04-08 13:59 | 47.60832 | 7.51937 | 881 ft | 19 kts | 334° |
| 2026-04-08 13:59 | 47.60960 | 7.51843 | 877 ft | 22 kts | 333° |
| 2026-04-08 13:59 | 47.61106 | 7.51743 | 874 ft | 24 kts | 335° |
| 2026-04-08 13:59 | 47.61266 | 7.51635 | 869 ft | 26 kts | 334° |
| 2026-04-08 14:00 | 47.61424 | 7.51522 | 860 ft | 25 kts | 335° |
| 2026-04-08 14:00 | 47.61567 | 7.51424 | 863 ft | 17 kts | 335° |
| 2026-04-08 14:00 | 47.61670 | 7.51352 | 870 ft | 16 kts | 334° |
| 2026-04-08 14:00 | 47.61762 | 7.51285 | 873 ft | 14 kts | 329° |
| 2026-04-08 14:01 | 47.61798 | 7.51224 | 873 ft | 10 kts | 296° |
| 2026-04-08 14:01 | 47.61803 | 7.51145 | 875 ft | 5 kts | 257° |
| 2026-04-08 14:01 | 47.61801 | 7.51132 | 876 ft | 0 kts | 252° |
| 2026-04-08 14:03 | 47.61800 | 7.51132 | 876 ft | 1 kts | 252° |
| 2026-04-08 14:03 | 47.61788 | 7.51074 | 876 ft | 12 kts | 252° |
| 2026-04-08 14:03 | 47.61726 | 7.51018 | 875 ft | 11 kts | 164° |
| 2026-04-08 14:04 | 47.61676 | 7.51052 | 876 ft | 0 kts | 156° |
| 2026-04-08 14:05 | 47.61675 | 7.51053 | 876 ft | 4 kts | 156° |
| 2026-04-08 14:05 | 47.61455 | 7.51207 | 872 ft | 74 kts | 155° |
| 2026-04-08 14:05 | 47.60790 | 7.51667 | 882 ft | 134 kts | 154° |
| 2026-04-08 14:05 | 47.59795 | 7.52366 | 938 ft | 176 kts | 153° |
| 2026-04-08 14:06 | 47.58692 | 7.53145 | 1610 ft | 174 kts | 153° |
| 2026-04-08 14:06 | 47.57590 | 7.53890 | 2373 ft | 175 kts | 155° |
| 2026-04-08 14:06 | 47.56476 | 7.54634 | 3017 ft | 179 kts | 153° |
| 2026-04-08 14:06 | 47.55284 | 7.55462 | 3456 ft | 200 kts | 153° |
| 2026-04-08 14:07 | 47.54140 | 7.56264 | 3763 ft | 219 kts | 153° |
| 2026-04-08 14:07 | 47.52679 | 7.57287 | 4145 ft | 245 kts | 153° |
| 2026-04-08 14:07 | 47.51070 | 7.58411 | 4731 ft | 264 kts | 154° |
| 2026-04-08 14:07 | 47.49388 | 7.59580 | 5590 ft | 271 kts | 153° |
| 2026-04-08 14:08 | 47.47663 | 7.60766 | 6499 ft | 277 kts | 156° |
| 2026-04-08 14:08 | 47.45772 | 7.61400 | 7298 ft | 283 kts | 175° |
| 2026-04-08 14:08 | 47.43791 | 7.61603 | 8106 ft | 288 kts | 175° |
| 2026-04-08 14:08 | 47.41785 | 7.61798 | 8941 ft | 292 kts | 175° |
| 2026-04-08 14:09 | 47.39735 | 7.62000 | 9784 ft | 297 kts | 175° |
| 2026-04-08 14:09 | 47.37659 | 7.62209 | 10515 ft | 305 kts | 175° |
| 2026-04-08 14:09 | 47.35455 | 7.62435 | 10796 ft | 329 kts | 175° |
| 2026-04-08 14:09 | 47.33138 | 7.62674 | 11299 ft | 342 kts | 175° |
| 2026-04-08 14:10 | 47.30775 | 7.63265 | 11973 ft | 347 kts | 163° |
| 2026-04-08 14:10 | 47.28519 | 7.64565 | 12702 ft | 351 kts | 151° |
| 2026-04-08 14:10 | 47.26377 | 7.66350 | 13444 ft | 355 kts | 149° |
| 2026-04-08 14:10 | 47.24228 | 7.68153 | 14205 ft | 357 kts | 149° |
| 2026-04-08 14:11 | 47.22072 | 7.70001 | 14854 ft | 360 kts | 145° |
| 2026-04-08 14:11 | 47.20135 | 7.72340 | 15456 ft | 363 kts | 133° |
| 2026-04-08 14:11 | 47.18569 | 7.75251 | 16099 ft | 364 kts | 120° |
| 2026-04-08 14:11 | 47.17458 | 7.78597 | 16735 ft | 366 kts | 108° |
| 2026-04-08 14:12 | 47.16587 | 7.82138 | 17369 ft | 370 kts | 108° |
| 2026-04-08 14:12 | 47.15698 | 7.85703 | 18001 ft | 374 kts | 108° |
| 2026-04-08 14:12 | 47.14795 | 7.89298 | 18618 ft | 377 kts | 108° |
| 2026-04-08 14:12 | 47.13880 | 7.92916 | 19162 ft | 381 kts | 108° |
| 2026-04-08 14:13 | 47.13153 | 7.96671 | 19706 ft | 383 kts | 101° |
| 2026-04-08 14:13 | 47.12538 | 8.00493 | 20253 ft | 386 kts | 101° |
| 2026-04-08 14:13 | 47.11920 | 8.04337 | 20793 ft | 389 kts | 101° |
| 2026-04-08 14:13 | 47.11294 | 8.08222 | 21329 ft | 392 kts | 101° |
| 2026-04-08 14:14 | 47.10663 | 8.12126 | 21859 ft | 395 kts | 101° |
| 2026-04-08 14:14 | 47.09452 | 8.19574 | 22815 ft | 401 kts | 101° |
| 2026-04-08 14:14 | 47.08801 | 8.23566 | 23301 ft | 405 kts | 101° |
| 2026-04-08 14:15 | 47.08136 | 8.27649 | 23809 ft | 408 kts | 101° |
| 2026-04-08 14:15 | 47.07474 | 8.31719 | 24220 ft | 411 kts | 101° |
| 2026-04-08 14:15 | 47.06804 | 8.35808 | 24630 ft | 414 kts | 101° |
| 2026-04-08 14:15 | 47.06128 | 8.39912 | 25026 ft | 417 kts | 101° |
| 2026-04-08 14:16 | 47.05324 | 8.44024 | 25432 ft | 422 kts | 112° |
| 2026-04-08 14:16 | 47.03773 | 8.47625 | 25804 ft | 428 kts | 130° |
| 2026-04-08 14:16 | 47.01563 | 8.50553 | 26163 ft | 431 kts | 144° |
| 2026-04-08 14:16 | 46.98958 | 8.52752 | 26520 ft | 434 kts | 157° |
| 2026-04-08 14:17 | 46.96059 | 8.54164 | 26898 ft | 435 kts | 169° |
| 2026-04-08 14:17 | 46.93093 | 8.54758 | 27275 ft | 437 kts | 175° |
| 2026-04-08 14:17 | 46.90062 | 8.55231 | 27639 ft | 439 kts | 175° |
| 2026-04-08 14:17 | 46.87011 | 8.55682 | 27999 ft | 442 kts | 176° |
| 2026-04-08 14:18 | 46.83948 | 8.56116 | 28380 ft | 443 kts | 176° |
| 2026-04-08 14:18 | 46.80871 | 8.56548 | 28738 ft | 445 kts | 176° |
| 2026-04-08 14:18 | 46.77774 | 8.56982 | 29081 ft | 448 kts | 176° |
| 2026-04-08 14:18 | 46.74680 | 8.57417 | 29450 ft | 450 kts | 176° |
| 2026-04-08 14:19 | 46.71540 | 8.57861 | 29838 ft | 452 kts | 176° |
| 2026-04-08 14:19 | 46.68408 | 8.58307 | 30155 ft | 454 kts | 176° |
| 2026-04-08 14:19 | 46.65279 | 8.58755 | 30211 ft | 445 kts | 176° |
| 2026-04-08 14:19 | 46.62251 | 8.59192 | 30208 ft | 431 kts | 176° |
| 2026-04-08 14:20 | 46.59273 | 8.59618 | 30205 ft | 428 kts | 176° |
| 2026-04-08 14:20 | 46.53364 | 8.60454 | 30187 ft | 426 kts | 176° |
| 2026-04-08 14:21 | 46.47462 | 8.61289 | 30175 ft | 426 kts | 176° |
| 2026-04-08 14:21 | 46.41573 | 8.62123 | 30150 ft | 425 kts | 177° |
| 2026-04-08 14:22 | 46.35676 | 8.62950 | 30133 ft | 425 kts | 176° |
| 2026-04-08 14:22 | 46.29785 | 8.63781 | 30118 ft | 425 kts | 176° |
| 2026-04-08 14:23 | 46.23895 | 8.64615 | 30106 ft | 425 kts | 176° |
| 2026-04-08 14:23 | 46.18013 | 8.65442 | 30102 ft | 425 kts | 176° |
| 2026-04-08 14:24 | 46.12132 | 8.66255 | 30100 ft | 425 kts | 176° |
| 2026-04-08 14:24 | 46.06256 | 8.67130 | 30116 ft | 425 kts | 175° |
| 2026-04-08 14:25 | 46.00379 | 8.68169 | 30125 ft | 425 kts | 174° |
| 2026-04-08 14:25 | 45.94908 | 8.69162 | 30132 ft | 425 kts | 174° |
| 2026-04-08 14:26 | 45.89031 | 8.70191 | 30126 ft | 425 kts | 174° |
| 2026-04-08 14:26 | 45.83158 | 8.71198 | 30123 ft | 425 kts | 174° |
| 2026-04-08 14:27 | 45.77525 | 8.72163 | 30125 ft | 424 kts | 174° |
| 2026-04-08 14:27 | 45.71657 | 8.73169 | 30126 ft | 424 kts | 174° |
| 2026-04-08 14:28 | 45.66023 | 8.74124 | 30126 ft | 424 kts | 174° |
| 2026-04-08 14:28 | 45.60162 | 8.75120 | 30124 ft | 424 kts | 174° |
| 2026-04-08 14:29 | 45.54339 | 8.76110 | 30123 ft | 424 kts | 174° |
| 2026-04-08 14:29 | 45.48484 | 8.77107 | 30120 ft | 424 kts | 174° |
| 2026-04-08 14:30 | 45.42624 | 8.78095 | 30122 ft | 424 kts | 174° |
| 2026-04-08 14:30 | 45.36770 | 8.79077 | 30121 ft | 424 kts | 174° |
| 2026-04-08 14:31 | 45.30913 | 8.80055 | 30123 ft | 424 kts | 174° |
| 2026-04-08 14:31 | 45.25065 | 8.81035 | 30141 ft | 424 kts | 174° |
| 2026-04-08 14:32 | 45.19204 | 8.82030 | 30145 ft | 424 kts | 174° |
| 2026-04-08 14:32 | 45.13353 | 8.83018 | 30152 ft | 423 kts | 174° |
| 2026-04-08 14:33 | 45.07505 | 8.83994 | 30152 ft | 423 kts | 174° |
| 2026-04-08 14:33 | 45.01657 | 8.84961 | 30154 ft | 423 kts | 174° |
| 2026-04-08 14:34 | 44.95808 | 8.85939 | 30155 ft | 423 kts | 174° |
| 2026-04-08 14:34 | 44.89968 | 8.86912 | 30142 ft | 423 kts | 174° |
| 2026-04-08 14:35 | 44.84129 | 8.87871 | 30139 ft | 422 kts | 174° |
| 2026-04-08 14:35 | 44.78328 | 8.88834 | 30131 ft | 422 kts | 174° |
| 2026-04-08 14:36 | 44.72497 | 8.89794 | 30141 ft | 422 kts | 174° |
| 2026-04-08 14:36 | 44.66661 | 8.90755 | 30155 ft | 422 kts | 174° |
| 2026-04-08 14:37 | 44.60821 | 8.91720 | 30171 ft | 422 kts | 174° |
| 2026-04-08 14:37 | 44.54989 | 8.92676 | 30175 ft | 422 kts | 174° |
| 2026-04-08 14:38 | 44.49153 | 8.93629 | 30187 ft | 422 kts | 174° |
| 2026-04-08 14:38 | 44.43330 | 8.94584 | 30187 ft | 421 kts | 174° |
| 2026-04-08 14:39 | 44.37516 | 8.95531 | 30186 ft | 421 kts | 174° |
| 2026-04-08 14:39 | 44.31621 | 8.96492 | 30192 ft | 436 kts | 174° |
| 2026-04-08 14:40 | 44.25688 | 8.97460 | 30192 ft | 456 kts | 173° |
| 2026-04-08 14:40 | 44.19271 | 8.98497 | 30192 ft | 472 kts | 173° |
| 2026-04-08 14:41 | 44.12700 | 8.99553 | 30190 ft | 476 kts | 173° |
| 2026-04-08 14:41 | 44.06112 | 9.00612 | 30187 ft | 477 kts | 173° |
| 2026-04-08 14:42 | 43.99519 | 9.01675 | 30188 ft | 477 kts | 173° |
| 2026-04-08 14:42 | 43.92915 | 9.02319 | 30184 ft | 476 kts | 184° |
| 2026-04-08 14:43 | 43.86315 | 9.01523 | 30180 ft | 476 kts | 185° |
| 2026-04-08 14:43 | 43.79721 | 9.00705 | 30179 ft | 476 kts | 185° |
| 2026-04-08 14:44 | 43.73124 | 8.99917 | 30180 ft | 476 kts | 185° |
| 2026-04-08 14:44 | 43.66581 | 8.99161 | 30176 ft | 475 kts | 185° |
| 2026-04-08 14:45 | 43.59984 | 8.98403 | 30176 ft | 475 kts | 185° |
| 2026-04-08 14:45 | 43.53397 | 8.97645 | 30178 ft | 475 kts | 185° |
| 2026-04-08 14:46 | 43.46813 | 8.96844 | 30173 ft | 475 kts | 185° |
| 2026-04-08 14:46 | 43.40258 | 8.96001 | 30173 ft | 474 kts | 187° |
| 2026-04-08 14:46 | 43.37049 | 8.95049 | 30171 ft | 473 kts | 198° |
| 2026-04-08 14:47 | 43.33908 | 8.93639 | 30175 ft | 473 kts | 198° |
| 2026-04-08 14:47 | 43.27644 | 8.90834 | 30032 ft | 475 kts | 198° |
| 2026-04-08 14:47 | 43.24506 | 8.89439 | 29700 ft | 475 kts | 198° |
| 2026-04-08 14:48 | 43.21358 | 8.88044 | 29429 ft | 475 kts | 198° |
| 2026-04-08 14:48 | 43.18210 | 8.86652 | 29148 ft | 476 kts | 198° |
| 2026-04-08 14:48 | 43.16132 | 8.85734 | 28961 ft | 476 kts | 198° |
| 2026-04-08 14:48 | 43.12973 | 8.84339 | 28691 ft | 477 kts | 198° |
| 2026-04-08 14:49 | 43.09810 | 8.82940 | 28420 ft | 478 kts | 198° |
| 2026-04-08 14:49 | 43.06646 | 8.81539 | 28147 ft | 478 kts | 198° |
| 2026-04-08 14:49 | 43.03483 | 8.80139 | 27905 ft | 479 kts | 198° |
| 2026-04-08 14:49 | 43.00314 | 8.78742 | 27633 ft | 479 kts | 198° |
| 2026-04-08 14:50 | 42.97136 | 8.77344 | 27369 ft | 480 kts | 198° |
| 2026-04-08 14:50 | 42.93968 | 8.75947 | 27114 ft | 480 kts | 198° |
| 2026-04-08 14:50 | 42.90783 | 8.74541 | 26859 ft | 481 kts | 197° |
| 2026-04-08 14:50 | 42.87598 | 8.73141 | 26610 ft | 481 kts | 197° |
| 2026-04-08 14:51 | 42.84408 | 8.71742 | 26357 ft | 482 kts | 197° |
| 2026-04-08 14:51 | 42.81213 | 8.70346 | 26111 ft | 482 kts | 197° |
| 2026-04-08 14:51 | 42.78009 | 8.68950 | 25869 ft | 483 kts | 197° |
| 2026-04-08 14:51 | 42.74810 | 8.67557 | 25621 ft | 484 kts | 197° |
| 2026-04-08 14:52 | 42.71598 | 8.66157 | 25379 ft | 484 kts | 197° |
| 2026-04-08 14:52 | 42.68390 | 8.64753 | 25142 ft | 485 kts | 197° |
| 2026-04-08 14:52 | 42.65182 | 8.63349 | 24900 ft | 486 kts | 197° |
| 2026-04-08 14:52 | 42.61960 | 8.61943 | 24666 ft | 486 kts | 197° |
| 2026-04-08 14:53 | 42.58731 | 8.60538 | 24431 ft | 487 kts | 197° |
| 2026-04-08 14:53 | 42.55505 | 8.59137 | 24199 ft | 488 kts | 197° |
| 2026-04-08 14:53 | 42.52273 | 8.57736 | 23941 ft | 488 kts | 197° |
| 2026-04-08 14:53 | 42.49074 | 8.56355 | 23278 ft | 489 kts | 197° |
| 2026-04-08 14:54 | 42.45831 | 8.54958 | 22677 ft | 489 kts | 197° |
| 2026-04-08 14:54 | 42.42631 | 8.53577 | 22331 ft | 473 kts | 197° |
| 2026-04-08 14:54 | 42.39569 | 8.52253 | 22190 ft | 450 kts | 197° |
| 2026-04-08 14:54 | 42.36691 | 8.51010 | 22017 ft | 419 kts | 197° |
| 2026-04-08 14:55 | 42.34008 | 8.49855 | 21799 ft | 393 kts | 197° |
| 2026-04-08 14:55 | 42.31449 | 8.48753 | 21196 ft | 381 kts | 197° |
| 2026-04-08 14:55 | 42.28946 | 8.47678 | 20455 ft | 374 kts | 197° |
| 2026-04-08 14:55 | 42.26482 | 8.46619 | 19695 ft | 370 kts | 197° |
| 2026-04-08 14:56 | 42.24045 | 8.45568 | 18956 ft | 366 kts | 197° |
| 2026-04-08 14:56 | 42.21611 | 8.44657 | 18196 ft | 361 kts | 189° |
| 2026-04-08 14:56 | 42.19151 | 8.44370 | 17722 ft | 350 kts | 182° |
| 2026-04-08 14:56 | 42.16726 | 8.44198 | 17308 ft | 348 kts | 182° |
| 2026-04-08 14:57 | 42.14311 | 8.44013 | 16894 ft | 346 kts | 183° |
| 2026-04-08 14:57 | 42.11918 | 8.43824 | 16504 ft | 344 kts | 183° |
| 2026-04-08 14:57 | 42.09535 | 8.43637 | 16104 ft | 342 kts | 183° |
| 2026-04-08 14:57 | 42.07161 | 8.43455 | 15714 ft | 341 kts | 183° |
| 2026-04-08 14:58 | 42.04798 | 8.43273 | 15321 ft | 339 kts | 184° |
| 2026-04-08 14:58 | 42.02446 | 8.43093 | 14932 ft | 338 kts | 184° |
| 2026-04-08 14:58 | 42.00107 | 8.42917 | 14549 ft | 336 kts | 184° |
| 2026-04-08 14:58 | 41.97772 | 8.42743 | 14155 ft | 335 kts | 184° |
| 2026-04-08 14:59 | 41.95449 | 8.42572 | 13747 ft | 334 kts | 184° |
| 2026-04-08 14:59 | 41.93139 | 8.42399 | 13346 ft | 332 kts | 184° |
| 2026-04-08 14:59 | 41.90833 | 8.42224 | 12940 ft | 330 kts | 184° |
| 2026-04-08 14:59 | 41.88546 | 8.42050 | 12543 ft | 328 kts | 184° |
| 2026-04-08 15:00 | 41.86273 | 8.41878 | 12148 ft | 327 kts | 184° |
| 2026-04-08 15:00 | 41.84054 | 8.41711 | 11921 ft | 311 kts | 184° |
| 2026-04-08 15:00 | 41.81926 | 8.41553 | 11429 ft | 303 kts | 184° |
| 2026-04-08 15:00 | 41.79838 | 8.41397 | 10852 ft | 300 kts | 184° |
| 2026-04-08 15:01 | 41.77766 | 8.41238 | 10263 ft | 297 kts | 184° |
| 2026-04-08 15:01 | 41.75723 | 8.41415 | 9646 ft | 294 kts | 165° |
| 2026-04-08 15:01 | 41.73894 | 8.42552 | 9028 ft | 290 kts | 143° |
| 2026-04-08 15:01 | 41.72532 | 8.44502 | 8404 ft | 286 kts | 120° |
| 2026-04-08 15:02 | 41.71824 | 8.46952 | 7784 ft | 282 kts | 98° |
| 2026-04-08 15:02 | 41.71830 | 8.49541 | 7165 ft | 278 kts | 77° |
| 2026-04-08 15:02 | 41.72527 | 8.51923 | 6547 ft | 274 kts | 56° |
| 2026-04-08 15:02 | 41.73788 | 8.53788 | 5890 ft | 270 kts | 36° |
| 2026-04-08 15:03 | 41.75443 | 8.54940 | 5260 ft | 267 kts | 15° |
| 2026-04-08 15:03 | 41.77265 | 8.55266 | 4621 ft | 264 kts | 359° |
| 2026-04-08 15:03 | 41.79089 | 8.55283 | 4168 ft | 265 kts | 359° |
| 2026-04-08 15:03 | 41.80928 | 8.55305 | 3823 ft | 262 kts | 359° |
| 2026-04-08 15:04 | 41.82742 | 8.55330 | 3408 ft | 261 kts | 359° |
| 2026-04-08 15:04 | 41.84547 | 8.55359 | 3062 ft | 256 kts | 359° |
| 2026-04-08 15:04 | 41.86280 | 8.55387 | 3004 ft | 241 kts | 359° |
| 2026-04-08 15:04 | 41.87896 | 8.55411 | 3014 ft | 224 kts | 359° |
| 2026-04-08 15:05 | 41.89406 | 8.55431 | 3004 ft | 209 kts | 359° |
| 2026-04-08 15:05 | 41.90790 | 8.55451 | 3007 ft | 189 kts | 359° |
| 2026-04-08 15:05 | 41.92062 | 8.55467 | 3036 ft | 177 kts | 359° |
| 2026-04-08 15:05 | 41.93258 | 8.55483 | 3018 ft | 166 kts | 359° |
| 2026-04-08 15:06 | 41.94388 | 8.55497 | 3007 ft | 161 kts | 359° |
| 2026-04-08 15:06 | 41.95502 | 8.55527 | 3008 ft | 160 kts | 4° |
| 2026-04-08 15:06 | 41.96591 | 8.55851 | 3010 ft | 162 kts | 19° |
| 2026-04-08 15:06 | 41.97591 | 8.56539 | 3016 ft | 163 kts | 33° |
| 2026-04-08 15:07 | 41.98438 | 8.57548 | 3015 ft | 164 kts | 49° |
| 2026-04-08 15:07 | 41.99070 | 8.58824 | 3016 ft | 164 kts | 63° |
| 2026-04-08 15:07 | 41.99464 | 8.60265 | 3017 ft | 164 kts | 71° |
| 2026-04-08 15:07 | 41.99822 | 8.61733 | 3012 ft | 166 kts | 71° |
| 2026-04-08 15:08 | 42.00183 | 8.63204 | 3012 ft | 166 kts | 71° |
| 2026-04-08 15:08 | 42.00536 | 8.64678 | 3013 ft | 166 kts | 75° |
| 2026-04-08 15:08 | 42.00703 | 8.66218 | 3051 ft | 169 kts | 89° |
| 2026-04-08 15:08 | 42.00626 | 8.67784 | 3008 ft | 168 kts | 101° |
| 2026-04-08 15:09 | 42.00423 | 8.69295 | 3014 ft | 161 kts | 101° |
| 2026-04-08 15:09 | 42.00231 | 8.70764 | 3023 ft | 156 kts | 100° |
| 2026-04-08 15:09 | 42.00046 | 8.72191 | 3010 ft | 155 kts | 100° |
| 2026-04-08 15:09 | 41.99863 | 8.73613 | 2983 ft | 155 kts | 101° |
| 2026-04-08 15:10 | 41.99678 | 8.75044 | 2692 ft | 154 kts | 100° |
| 2026-04-08 15:10 | 41.99496 | 8.76442 | 2417 ft | 151 kts | 101° |
| 2026-04-08 15:10 | 41.99312 | 8.77835 | 2171 ft | 150 kts | 101° |
| 2026-04-08 15:10 | 41.99131 | 8.79213 | 1941 ft | 150 kts | 102° |
| 2026-04-08 15:11 | 41.98950 | 8.80580 | 1704 ft | 148 kts | 105° |
| 2026-04-08 15:11 | 41.98500 | 8.81770 | 1449 ft | 140 kts | 137° |
| 2026-04-08 15:11 | 41.97743 | 8.82513 | 1265 ft | 134 kts | 159° |
| 2026-04-08 15:11 | 41.96842 | 8.82762 | 1021 ft | 134 kts | 185° |
| 2026-04-08 15:12 | 41.95952 | 8.82488 | 821 ft | 132 kts | 206° |
| 2026-04-08 15:12 | 41.95118 | 8.81958 | 625 ft | 134 kts | 207° |
| 2026-04-08 15:12 | 41.94283 | 8.81420 | 403 ft | 133 kts | 206° |
| 2026-04-08 15:12 | 41.93450 | 8.80896 | 203 ft | 129 kts | 205° |
| 2026-04-08 15:13 | 41.92661 | 8.80401 | 28 ft | 118 kts | 205° |
| 2026-04-08 15:13 | 41.92105 | 8.80069 | 20 ft | 60 kts | 205° |
| 2026-04-08 15:13 | 41.91762 | 8.79852 | 17 ft | 49 kts | 204° |
| 2026-04-08 15:13 | 41.91481 | 8.79677 | 17 ft | 41 kts | 205° |
| 2026-04-08 15:14 | 41.91290 | 8.79554 | 22 ft | 24 kts | 212° |
| 2026-04-08 15:14 | 41.91269 | 8.79414 | 23 ft | 17 kts | 326° |
| 2026-04-08 15:14 | 41.91364 | 8.79352 | 28 ft | 13 kts | 335° |
| 2026-04-08 15:14 | 41.91446 | 8.79332 | 26 ft | 12 kts | 2° |
| 2026-04-08 15:15 | 41.91516 | 8.79367 | 26 ft | 10 kts | 30° |
| 2026-04-08 15:15 | 41.91578 | 8.79408 | 29 ft | 12 kts | 26° |
| 2026-04-08 15:15 | 41.91676 | 8.79468 | 30 ft | 16 kts | 24° |
| 2026-04-08 15:15 | 41.91771 | 8.79528 | 30 ft | 15 kts | 25° |
| 2026-04-08 15:16 | 41.91860 | 8.79583 | 28 ft | 13 kts | 24° |
| 2026-04-08 15:16 | 41.91912 | 8.79605 | 26 ft | 6 kts | 354° |
| 2026-04-08 15:16 | 41.91945 | 8.79581 | 29 ft | 4 kts | 338° |
| 2026-04-08 15:16 | 41.91956 | 8.79576 | 27 ft | 0 kts | 342° |